Weather at Middle Bass-East Point Airport

Public forecast

Using degrees Fahrenheit for public forecast. Weather courtesy of forecast.io.

Closest aviation weather report (METAR) to Middle Bass-East Point Airport

Closest report is Carl R Keller Field, 11.2 nm (20.7 km) SSW. Retrieved 2020/09/26 13:35 UTC (20 minutes ago):

KPCW 261335Z AUTO 23009G15KT 10SM CLR 19/16 A2997 RMK AO2

Closest aviation forecast (TAF) to Middle Bass-East Point Airport

Closest forecast is Windsor Airport, 35.6 nm (65.9 km) NNW. Retrieved 2020/09/26 12:45 UTC (1 hour ago):

TAF CYQG 261143Z 2612/2712 19005KT P6SM SKC TEMPO 2612/2614 5SM BR FM261400 21010KT P6SM FEW030 BECMG 2615/2616 20013G23KT RMK FCST BASED ON AUTO OBS NXT FCST BY 261800Z